Terminal Aerodrome Forecast
Issued by NWS

Home | Current Version | Previous Version | Text Only | Print | Product List | Glossary On
Versions: 1 2 3 4 5 6 7 8 9 10 11 12 13 14 15 16 17
774
FTUS43 KDTX 250520
TAFDET
TAF
KDET 250520Z 2506/2606 06009KT 4SM -SHRA BR BKN007 OVC012
     FM251000 06007KT 4SM -SHRA BR OVC004
     FM251700 02007KT 4SM -SHRA BR OVC007
     FM260000 34008KT P6SM BKN007 BKN012=

USA.gov is the U.S. government's official web portal to all federal, state and local government web resources and services.